createdAt,value
2022-08-28T00:05:54.984Z,18.85
2022-08-28T00:13:28.810Z,18.75
2022-08-28T00:21:04.459Z,18.73
2022-08-28T00:28:38.285Z,18.73
2022-08-28T00:36:13.434Z,18.72
2022-08-28T00:43:49.883Z,18.72
2022-08-28T00:51:43.339Z,18.77
2022-08-28T00:59:19.642Z,18.79
2022-08-28T01:06:58.034Z,18.78
2022-08-28T01:14:34.692Z,18.74
2022-08-28T01:22:19.488Z,18.76
2022-08-28T01:29:55.321Z,18.74
2022-08-28T01:37:29.673Z,18.70
2022-08-28T01:45:05.316Z,18.73
2022-08-28T01:52:39.254Z,18.65
2022-08-28T02:00:16.671Z,18.48
2022-08-28T02:07:50.470Z,18.40
2022-08-28T02:15:26.570Z,18.37
2022-08-28T02:23:00.994Z,18.24
2022-08-28T02:30:36.558Z,18.13
2022-08-28T02:38:11.560Z,18.05
2022-08-28T02:45:48.328Z,17.95
2022-08-28T02:53:22.711Z,17.84
2022-08-28T03:00:57.977Z,17.78
2022-08-28T03:08:34.021Z,17.67
2022-08-28T03:16:09.609Z,17.62
2022-08-28T03:23:43.420Z,17.52
2022-08-28T03:31:21.195Z,17.45
2022-08-28T03:38:57.363Z,17.39
2022-08-28T03:46:33.920Z,17.43
2022-08-28T03:54:07.684Z,17.38
2022-08-28T04:01:43.175Z,17.25
2022-08-28T04:09:16.991Z,17.19
2022-08-28T04:16:52.156Z,17.17
2022-08-28T04:24:25.996Z,17.08
2022-08-28T04:32:01.330Z,17.07
2022-08-28T04:39:35.355Z,17.06
2022-08-28T04:47:10.755Z,16.97
2022-08-28T04:54:44.774Z,17.00
2022-08-28T05:02:20.032Z,16.92
2022-08-28T05:09:54.665Z,16.85
2022-08-28T05:17:32.153Z,16.71
2022-08-28T05:25:06.447Z,16.57
2022-08-28T05:32:43.124Z,16.55
2022-08-28T05:40:18.196Z,16.43
2022-08-28T05:47:53.514Z,16.37
2022-08-28T05:55:27.332Z,16.26
2022-08-28T06:03:02.630Z,16.32
2022-08-28T06:10:37.244Z,16.22
2022-08-28T06:18:14.996Z,16.26
2022-08-28T06:25:51.812Z,16.17
2022-08-28T06:33:27.178Z,16.14
2022-08-28T06:41:01.151Z,16.13
2022-08-28T06:48:36.314Z,16.18
2022-08-28T06:56:13.726Z,16.26
2022-08-28T07:04:04.054Z,16.26
2022-08-28T07:11:38.690Z,16.37
2022-08-28T07:19:14.099Z,16.47
2022-08-28T07:26:49.158Z,16.56
2022-08-28T07:34:27.042Z,16.64
2022-08-28T07:42:01.225Z,16.64
2022-08-28T07:49:36.860Z,16.65
2022-08-28T07:57:11.035Z,16.69
2022-08-28T08:04:46.180Z,16.74
2022-08-28T08:12:20.566Z,16.90
2022-08-28T08:19:55.903Z,16.95
2022-08-28T08:27:29.713Z,16.98
2022-08-28T08:35:05.255Z,17.03
2022-08-28T08:42:39.268Z,17.08
2022-08-28T08:50:24.112Z,17.16
2022-08-28T08:58:03.749Z,17.18
2022-08-28T09:05:48.471Z,17.16
2022-08-28T09:13:27.315Z,17.25
2022-08-28T09:21:02.891Z,17.35
2022-08-28T09:28:40.782Z,17.46
2022-08-28T09:36:29.522Z,17.68
2022-08-28T09:44:04.249Z,17.63
2022-08-28T09:51:39.930Z,17.61
2022-08-28T09:59:16.022Z,17.62
2022-08-28T10:06:54.779Z,17.57
2022-08-28T10:14:45.546Z,17.67
2022-08-28T10:22:34.588Z,17.73
2022-08-28T10:30:14.408Z,17.74
2022-08-28T10:38:01.326Z,17.72
2022-08-28T10:45:36.207Z,17.78
2022-08-28T10:53:16.719Z,17.58
2022-08-28T11:00:51.481Z,17.50
2022-08-28T11:08:30.786Z,17.63
2022-08-28T11:16:13.456Z,17.58
2022-08-28T11:23:52.666Z,17.69
2022-08-28T11:31:36.595Z,17.67
2022-08-28T11:39:22.218Z,17.64
2022-08-28T11:46:58.880Z,17.62
2022-08-28T11:54:45.830Z,17.69
2022-08-28T12:02:49.198Z,17.66
2022-08-28T12:10:55.007Z,17.76
2022-08-28T12:19:04.910Z,18.00
2022-08-28T12:26:46.150Z,18.11
2022-08-28T12:34:30.252Z,18.28
2022-08-28T12:42:05.843Z,18.48
2022-08-28T12:49:39.661Z,18.55
2022-08-28T12:57:18.446Z,18.77
2022-08-28T13:04:55.824Z,18.79
2022-08-28T13:12:55.245Z,18.98
2022-08-28T13:20:31.310Z,19.17
2022-08-28T13:28:14.456Z,19.32
2022-08-28T13:35:48.734Z,19.40
2022-08-28T13:43:25.505Z,19.42
2022-08-28T13:51:05.022Z,19.53
2022-08-28T13:58:42.813Z,19.63
2022-08-28T14:06:18.331Z,19.75
2022-08-28T14:13:55.318Z,20.01
2022-08-28T14:21:30.199Z,20.24
2022-08-28T14:29:07.693Z,20.34
2022-08-28T14:36:43.106Z,20.50
2022-08-28T14:44:18.710Z,20.87
2022-08-28T14:51:54.129Z,21.27
2022-08-28T14:59:32.098Z,21.64
2022-08-28T15:07:08.444Z,21.73
2022-08-28T15:14:55.011Z,22.03
2022-08-28T15:22:31.123Z,22.23
2022-08-28T15:30:07.433Z,22.58
2022-08-28T15:37:41.266Z,22.82
2022-08-28T15:45:18.231Z,22.87
2022-08-28T15:52:53.451Z,22.99
2022-08-28T16:00:28.868Z,23.06
2022-08-28T16:08:02.945Z,23.25
2022-08-28T16:15:38.043Z,23.18
2022-08-28T16:23:14.015Z,22.96
2022-08-28T16:30:49.202Z,22.93
2022-08-28T16:38:23.226Z,22.49
2022-08-28T16:45:58.425Z,22.20
2022-08-28T16:53:32.664Z,21.87
2022-08-28T17:01:08.629Z,21.66
2022-08-28T17:08:45.002Z,21.45
2022-08-28T17:16:21.774Z,21.29
2022-08-28T17:23:57.110Z,21.15
2022-08-28T17:31:32.750Z,21.02
2022-08-28T17:39:09.152Z,20.90
2022-08-28T17:46:44.376Z,20.77
2022-08-28T17:54:21.740Z,20.64
2022-08-28T18:01:57.001Z,20.46
2022-08-28T18:09:30.882Z,20.28
2022-08-28T18:17:06.260Z,20.08
2022-08-28T18:24:43.913Z,19.89
2022-08-28T18:32:19.198Z,19.72
2022-08-28T18:39:52.966Z,19.54
2022-08-28T18:47:30.102Z,19.35
2022-08-28T18:55:05.190Z,19.21
2022-08-28T19:02:41.799Z,19.09
2022-08-28T19:10:32.692Z,18.91
2022-08-28T19:18:08.639Z,18.80
2022-08-28T19:25:42.512Z,18.64
2022-08-28T19:33:17.995Z,18.58
2022-08-28T19:40:51.794Z,18.43
2022-08-28T19:48:27.121Z,18.35
2022-08-28T19:56:01.064Z,18.19
2022-08-28T20:03:37.316Z,18.12
2022-08-28T20:11:16.510Z,18.04
2022-08-28T20:18:51.755Z,17.94
2022-08-28T20:26:25.616Z,17.85
2022-08-28T20:34:03.837Z,17.77
2022-08-28T20:41:42.466Z,17.74
2022-08-28T20:49:18.099Z,17.63
2022-08-28T20:56:52.621Z,17.54
2022-08-28T21:04:30.384Z,17.43
2022-08-28T21:12:04.706Z,17.30
2022-08-28T21:19:40.715Z,17.14
2022-08-28T21:27:14.707Z,16.99
2022-08-28T21:34:54.550Z,16.83
2022-08-28T21:42:28.912Z,16.74
2022-08-28T21:50:04.152Z,16.67
2022-08-28T21:57:38.787Z,16.61
2022-08-28T22:05:14.260Z,16.56
2022-08-28T22:12:48.059Z,16.45
2022-08-28T22:20:23.246Z,16.33
2022-08-28T22:27:57.135Z,16.21
2022-08-28T22:35:32.419Z,16.11
2022-08-28T22:43:06.162Z,16.07
2022-08-28T22:50:42.229Z,16.01
2022-08-28T22:58:16.112Z,15.92
2022-08-28T23:05:51.310Z,15.87
2022-08-28T23:13:25.116Z,15.75
2022-08-28T23:21:01.499Z,15.66
2022-08-28T23:28:35.294Z,15.62
2022-08-28T23:36:11.658Z,15.57
2022-08-28T23:43:45.441Z,15.58
2022-08-28T23:51:21.921Z,15.56
2022-08-28T23:58:55.837Z,15.53
